sensor_id;sensor_type;location;lat;lon;timestamp;pressure;altitude;pressure_sealevel;temperature;humidity
9187;BME280;7273;48.902;9.410;2023-04-26T00:02:02;98053.56;;;7.86;71.15
9187;BME280;7273;48.902;9.410;2023-04-26T00:04:29;98055.13;;;7.77;70.89
9187;BME280;7273;48.902;9.410;2023-04-26T00:06:55;98059.97;;;7.80;71.35
9187;BME280;7273;48.902;9.410;2023-04-26T00:09:21;98058.88;;;7.76;71.52
9187;BME280;7273;48.902;9.410;2023-04-26T00:11:47;98055.34;;;7.70;70.90
9187;BME280;7273;48.902;9.410;2023-04-26T00:14:13;98057.78;;;7.72;71.10
9187;BME280;7273;48.902;9.410;2023-04-26T00:16:39;98055.09;;;7.72;71.43
9187;BME280;7273;48.902;9.410;2023-04-26T00:19:04;98058.81;;;7.66;71.12
9187;BME280;7273;48.902;9.410;2023-04-26T00:21:30;98053.94;;;7.63;71.45
9187;BME280;7273;48.902;9.410;2023-04-26T00:23:56;98060.66;;;7.60;71.62
9187;BME280;7273;48.902;9.410;2023-04-26T00:26:22;98063.59;;;7.59;71.00
9187;BME280;7273;48.902;9.410;2023-04-26T00:28:47;98058.22;;;7.59;71.54
9187;BME280;7273;48.902;9.410;2023-04-26T00:31:16;98056.03;;;7.56;71.19
9187;BME280;7273;48.902;9.410;2023-04-26T00:33:42;98053.09;;;7.57;71.56
9187;BME280;7273;48.902;9.410;2023-04-26T00:36:09;98054.16;;;7.56;71.32
9187;BME280;7273;48.902;9.410;2023-04-26T00:38:35;98052.28;;;7.57;71.09
9187;BME280;7273;48.902;9.410;2023-04-26T00:41:00;98054.16;;;7.56;71.79
9187;BME280;7273;48.902;9.410;2023-04-26T00:43:26;98052.78;;;7.54;71.15
9187;BME280;7273;48.902;9.410;2023-04-26T00:45:52;98054.34;;;7.50;71.17
9187;BME280;7273;48.902;9.410;2023-04-26T00:48:19;98057.59;;;7.52;71.36
9187;BME280;7273;48.902;9.410;2023-04-26T00:50:45;98061.34;;;7.46;71.43
9187;BME280;7273;48.902;9.410;2023-04-26T00:53:15;98063.78;;;7.47;71.27
9187;BME280;7273;48.902;9.410;2023-04-26T00:55:42;98073.72;;;7.47;71.28
9187;BME280;7273;48.902;9.410;2023-04-26T00:58:09;98072.56;;;7.38;71.71
9187;BME280;7273;48.902;9.410;2023-04-26T01:00:35;98077.94;;;7.38;71.20
9187;BME280;7273;48.902;9.410;2023-04-26T01:03:01;98082.72;;;7.31;71.51
9187;BME280;7273;48.902;9.410;2023-04-26T01:05:27;98076.22;;;7.27;71.04
9187;BME280;7273;48.902;9.410;2023-04-26T01:07:53;98081.31;;;7.23;71.29
9187;BME280;7273;48.902;9.410;2023-04-26T01:10:19;98083.44;;;7.21;71.70
9187;BME280;7273;48.902;9.410;2023-04-26T01:12:45;98077.75;;;7.18;71.27
9187;BME280;7273;48.902;9.410;2023-04-26T01:15:12;98080.13;;;7.14;71.05
9187;BME280;7273;48.902;9.410;2023-04-26T01:17:38;98076.34;;;7.10;70.95
9187;BME280;7273;48.902;9.410;2023-04-26T01:20:04;98075.78;;;7.08;71.12
9187;BME280;7273;48.902;9.410;2023-04-26T01:22:34;98077.34;;;7.04;70.82
9187;BME280;7273;48.902;9.410;2023-04-26T01:25:00;98076.81;;;7.02;71.13
9187;BME280;7273;48.902;9.410;2023-04-26T01:27:28;98075.34;;;6.95;70.90
9187;BME280;7273;48.902;9.410;2023-04-26T01:29:54;98073.81;;;6.99;71.23
9187;BME280;7273;48.902;9.410;2023-04-26T01:32:20;98071.78;;;6.89;71.92
9187;BME280;7273;48.902;9.410;2023-04-26T01:34:45;98060.75;;;6.86;71.58
9187;BME280;7273;48.902;9.410;2023-04-26T01:37:11;98068.81;;;6.86;71.87
9187;BME280;7273;48.902;9.410;2023-04-26T01:39:37;98066.41;;;6.84;71.35
9187;BME280;7273;48.902;9.410;2023-04-26T01:42:03;98069.09;;;6.84;71.71
9187;BME280;7273;48.902;9.410;2023-04-26T01:44:29;98074.69;;;6.82;71.65
9187;BME280;7273;48.902;9.410;2023-04-26T01:46:55;98073.06;;;6.81;71.79
9187;BME280;7273;48.902;9.410;2023-04-26T01:49:20;98069.81;;;6.79;71.94
9187;BME280;7273;48.902;9.410;2023-04-26T01:51:46;98072.19;;;6.76;72.25
9187;BME280;7273;48.902;9.410;2023-04-26T01:54:11;98071.34;;;6.70;72.36
9187;BME280;7273;48.902;9.410;2023-04-26T01:56:36;98068.03;;;6.63;71.89
9187;BME280;7273;48.902;9.410;2023-04-26T01:59:02;98069.94;;;6.68;72.34
9187;BME280;7273;48.902;9.410;2023-04-26T02:01:27;98067.28;;;6.46;72.30
9187;BME280;7273;48.902;9.410;2023-04-26T02:03:52;98072.22;;;6.54;72.20
9187;BME280;7273;48.902;9.410;2023-04-26T02:06:18;98073.06;;;6.60;72.32
9187;BME280;7273;48.902;9.410;2023-04-26T02:08:44;98079.41;;;6.49;71.86
9187;BME280;7273;48.902;9.410;2023-04-26T02:11:09;98070.53;;;6.48;72.10
9187;BME280;7273;48.902;9.410;2023-04-26T02:13:35;98073.19;;;6.48;71.97
9187;BME280;7273;48.902;9.410;2023-04-26T02:16:02;98069.81;;;6.58;71.57
9187;BME280;7273;48.902;9.410;2023-04-26T02:18:27;98083.75;;;6.55;71.85
9187;BME280;7273;48.902;9.410;2023-04-26T02:20:53;98072.50;;;6.58;71.86
9187;BME280;7273;48.902;9.410;2023-04-26T02:23:19;98066.34;;;6.57;72.08
9187;BME280;7273;48.902;9.410;2023-04-26T02:25:45;98066.66;;;6.61;71.68
9187;BME280;7273;48.902;9.410;2023-04-26T02:28:14;98061.09;;;6.67;71.52
9187;BME280;7273;48.902;9.410;2023-04-26T02:30:41;98067.56;;;6.71;71.94
9187;BME280;7273;48.902;9.410;2023-04-26T02:33:07;98071.41;;;6.75;71.95
9187;BME280;7273;48.902;9.410;2023-04-26T02:35:33;98064.69;;;6.78;71.82
9187;BME280;7273;48.902;9.410;2023-04-26T02:37:59;98066.59;;;6.77;71.57
9187;BME280;7273;48.902;9.410;2023-04-26T02:40:25;98062.50;;;6.75;71.95
9187;BME280;7273;48.902;9.410;2023-04-26T02:42:50;98061.94;;;6.73;71.85
9187;BME280;7273;48.902;9.410;2023-04-26T02:45:15;98055.03;;;6.77;72.15
9187;BME280;7273;48.902;9.410;2023-04-26T02:47:41;98065.78;;;6.77;72.35
9187;BME280;7273;48.902;9.410;2023-04-26T02:50:07;98060.91;;;6.74;72.00
9187;BME280;7273;48.902;9.410;2023-04-26T02:52:33;98060.66;;;6.75;72.06
9187;BME280;7273;48.902;9.410;2023-04-26T02:54:59;98060.72;;;6.80;71.88
9187;BME280;7273;48.902;9.410;2023-04-26T02:57:25;98060.72;;;6.80;71.78
9187;BME280;7273;48.902;9.410;2023-04-26T02:59:50;98071.16;;;6.77;72.19
9187;BME280;7273;48.902;9.410;2023-04-26T03:02:16;98069.09;;;6.62;71.96
9187;BME280;7273;48.902;9.410;2023-04-26T03:04:41;98067.84;;;6.27;72.60
9187;BME280;7273;48.902;9.410;2023-04-26T03:07:07;98073.50;;;6.09;72.83
9187;BME280;7273;48.902;9.410;2023-04-26T03:09:32;98071.44;;;6.16;72.91
9187;BME280;7273;48.902;9.410;2023-04-26T03:11:58;98071.53;;;6.04;73.05
9187;BME280;7273;48.902;9.410;2023-04-26T03:14:24;98073.28;;;5.94;72.88
9187;BME280;7273;48.902;9.410;2023-04-26T03:16:49;98072.88;;;5.85;73.30
9187;BME280;7273;48.902;9.410;2023-04-26T03:19:15;98077.44;;;5.85;73.09
9187;BME280;7273;48.902;9.410;2023-04-26T03:21:40;98070.78;;;5.87;72.83
9187;BME280;7273;48.902;9.410;2023-04-26T03:24:06;98075.31;;;5.87;72.88
9187;BME280;7273;48.902;9.410;2023-04-26T03:26:31;98073.53;;;5.92;72.48
9187;BME280;7273;48.902;9.410;2023-04-26T03:28:57;98073.53;;;5.92;72.70
9187;BME280;7273;48.902;9.410;2023-04-26T03:31:22;98074.03;;;5.89;72.79
9187;BME280;7273;48.902;9.410;2023-04-26T03:33:48;98076.94;;;5.88;72.86
9187;BME280;7273;48.902;9.410;2023-04-26T03:36:13;98076.16;;;5.87;73.13
9187;BME280;7273;48.902;9.410;2023-04-26T03:38:39;98080.44;;;5.88;72.67
9187;BME280;7273;48.902;9.410;2023-04-26T03:41:04;98075.00;;;5.83;72.67
9187;BME280;7273;48.902;9.410;2023-04-26T03:43:30;98083.25;;;5.82;72.64
9187;BME280;7273;48.902;9.410;2023-04-26T03:45:56;98080.69;;;5.87;72.76
9187;BME280;7273;48.902;9.410;2023-04-26T03:48:21;98091.66;;;5.85;72.39
9187;BME280;7273;48.902;9.410;2023-04-26T03:50:47;98092.50;;;5.86;72.48
9187;BME280;7273;48.902;9.410;2023-04-26T03:53:12;98083.63;;;5.85;72.51
9187;BME280;7273;48.902;9.410;2023-04-26T03:55:37;98076.63;;;5.84;72.40
9187;BME280;7273;48.902;9.410;2023-04-26T03:58:03;98077.91;;;5.82;72.75
9187;BME280;7273;48.902;9.410;2023-04-26T04:00:33;98078.97;;;5.81;72.14
9187;BME280;7273;48.902;9.410;2023-04-26T04:02:59;98079.75;;;5.81;72.49
9187;BME280;7273;48.902;9.410;2023-04-26T04:05:24;98082.22;;;5.83;72.25
9187;BME280;7273;48.902;9.410;2023-04-26T04:07:49;98084.81;;;5.78;72.36
9187;BME280;7273;48.902;9.410;2023-04-26T04:10:15;98082.84;;;5.73;72.40
9187;BME280;7273;48.902;9.410;2023-04-26T04:12:41;98076.13;;;5.71;72.20
9187;BME280;7273;48.902;9.410;2023-04-26T04:15:07;98081.00;;;5.74;72.54
9187;BME280;7273;48.902;9.410;2023-04-26T04:17:32;98076.94;;;5.71;72.56
9187;BME280;7273;48.902;9.410;2023-04-26T04:19:58;98080.66;;;5.70;72.27
9187;BME280;7273;48.902;9.410;2023-04-26T04:22:23;98078.81;;;5.71;72.51
9187;BME280;7273;48.902;9.410;2023-04-26T04:24:48;98076.69;;;5.73;72.54
9187;BME280;7273;48.902;9.410;2023-04-26T04:27:14;98081.31;;;5.77;72.18
9187;BME280;7273;48.902;9.410;2023-04-26T04:29:40;98078.06;;;5.75;72.21
9187;BME280;7273;48.902;9.410;2023-04-26T04:32:06;98078.41;;;5.79;72.14
9187;BME280;7273;48.902;9.410;2023-04-26T04:34:35;98080.81;;;5.80;72.18
9187;BME280;7273;48.902;9.410;2023-04-26T04:37:00;98084.25;;;5.76;71.85
9187;BME280;7273;48.902;9.410;2023-04-26T04:39:26;98081.91;;;5.79;72.01
9187;BME280;7273;48.902;9.410;2023-04-26T04:41:51;98087.25;;;5.79;71.70
9187;BME280;7273;48.902;9.410;2023-04-26T04:44:18;98090.56;;;5.70;72.12
9187;BME280;7273;48.902;9.410;2023-04-26T04:46:43;98082.34;;;5.76;72.38
9187;BME280;7273;48.902;9.410;2023-04-26T04:49:12;98085.53;;;5.73;71.86
9187;BME280;7273;48.902;9.410;2023-04-26T04:51:38;98084.59;;;5.79;72.06
9187;BME280;7273;48.902;9.410;2023-04-26T04:54:14;98085.13;;;5.81;72.17
9187;BME280;7273;48.902;9.410;2023-04-26T04:56:40;98091.91;;;5.84;72.32
9187;BME280;7273;48.902;9.410;2023-04-26T04:59:06;98095.63;;;5.83;72.16
9187;BME280;7273;48.902;9.410;2023-04-26T05:01:32;98092.63;;;5.79;71.91
9187;BME280;7273;48.902;9.410;2023-04-26T05:03:58;98100.22;;;5.82;72.12
9187;BME280;7273;48.902;9.410;2023-04-26T05:06:24;98111.53;;;5.84;72.04
9187;BME280;7273;48.902;9.410;2023-04-26T05:08:49;98107.53;;;5.87;72.41
9187;BME280;7273;48.902;9.410;2023-04-26T05:11:15;98115.94;;;5.79;72.08
9187;BME280;7273;48.902;9.410;2023-04-26T05:13:41;98117.50;;;5.75;72.36
9187;BME280;7273;48.902;9.410;2023-04-26T05:16:06;98121.69;;;5.82;72.63
9187;BME280;7273;48.902;9.410;2023-04-26T05:18:31;98121.19;;;5.85;72.64
9187;BME280;7273;48.902;9.410;2023-04-26T05:20:57;98122.25;;;5.84;72.49
9187;BME280;7273;48.902;9.410;2023-04-26T05:23:22;98127.13;;;5.87;72.44
9187;BME280;7273;48.902;9.410;2023-04-26T05:25:48;98124.03;;;5.95;72.84
9187;BME280;7273;48.902;9.410;2023-04-26T05:28:13;98136.63;;;5.95;72.58
9187;BME280;7273;48.902;9.410;2023-04-26T05:30:39;98132.34;;;5.94;72.83
9187;BME280;7273;48.902;9.410;2023-04-26T05:33:05;98132.75;;;6.02;72.59
9187;BME280;7273;48.902;9.410;2023-04-26T05:35:31;98136.78;;;6.05;72.84
9187;BME280;7273;48.902;9.410;2023-04-26T05:37:56;98136.63;;;6.11;72.71
9187;BME280;7273;48.902;9.410;2023-04-26T05:40:22;98145.25;;;6.13;73.08
9187;BME280;7273;48.902;9.410;2023-04-26T05:42:51;98141.41;;;6.26;73.08
9187;BME280;7273;48.902;9.410;2023-04-26T05:45:17;98152.53;;;6.34;73.03
9187;BME280;7273;48.902;9.410;2023-04-26T05:47:42;98153.00;;;6.48;72.72
9187;BME280;7273;48.902;9.410;2023-04-26T05:50:08;98140.44;;;6.75;72.17
9187;BME280;7273;48.902;9.410;2023-04-26T05:52:33;98144.78;;;7.24;71.74
9187;BME280;7273;48.902;9.410;2023-04-26T05:54:59;98151.41;;;7.70;71.27
9187;BME280;7273;48.902;9.410;2023-04-26T05:57:27;98145.22;;;8.33;69.70
9187;BME280;7273;48.902;9.410;2023-04-26T05:59:53;98147.97;;;8.94;69.44
9187;BME280;7273;48.902;9.410;2023-04-26T06:02:18;98148.13;;;9.65;68.47
9187;BME280;7273;48.902;9.410;2023-04-26T06:04:43;98144.06;;;10.52;68.50
9187;BME280;7273;48.902;9.410;2023-04-26T06:07:09;98137.41;;;11.09;68.87
9187;BME280;7273;48.902;9.410;2023-04-26T06:09:34;98153.84;;;11.71;69.33
9187;BME280;7273;48.902;9.410;2023-04-26T06:11:59;98161.84;;;12.25;70.14
9187;BME280;7273;48.902;9.410;2023-04-26T06:14:26;98151.88;;;12.72;70.44
9187;BME280;7273;48.902;9.410;2023-04-26T06:16:51;98155.22;;;12.64;72.38
9187;BME280;7273;48.902;9.410;2023-04-26T06:19:17;98150.56;;;12.93;72.11
9187;BME280;7273;48.902;9.410;2023-04-26T06:21:42;98146.16;;;13.21;72.87
9187;BME280;7273;48.902;9.410;2023-04-26T06:24:07;98155.13;;;13.21;73.03
9187;BME280;7273;48.902;9.410;2023-04-26T06:26:33;98148.22;;;13.10;72.52
9187;BME280;7273;48.902;9.410;2023-04-26T06:28:59;98160.81;;;13.01;71.44
9187;BME280;7273;48.902;9.410;2023-04-26T06:31:24;98156.50;;;12.72;70.55
9187;BME280;7273;48.902;9.410;2023-04-26T06:33:49;98157.72;;;12.32;70.28
9187;BME280;7273;48.902;9.410;2023-04-26T06:36:15;98168.25;;;12.05;69.82
9187;BME280;7273;48.902;9.410;2023-04-26T06:38:40;98169.19;;;11.85;69.53
9187;BME280;7273;48.902;9.410;2023-04-26T06:41:06;98169.19;;;11.42;69.88
9187;BME280;7273;48.902;9.410;2023-04-26T06:43:32;98165.41;;;11.33;69.79
9187;BME280;7273;48.902;9.410;2023-04-26T06:45:58;98179.09;;;11.03;69.45
9187;BME280;7273;48.902;9.410;2023-04-26T06:48:23;98168.13;;;10.59;69.51
9187;BME280;7273;48.902;9.410;2023-04-26T06:50:48;98165.94;;;10.66;69.83
9187;BME280;7273;48.902;9.410;2023-04-26T06:53:14;98173.56;;;10.54;69.80
9187;BME280;7273;48.902;9.410;2023-04-26T06:55:39;98170.81;;;10.59;69.62
9187;BME280;7273;48.902;9.410;2023-04-26T06:58:05;98176.22;;;10.59;69.74
9187;BME280;7273;48.902;9.410;2023-04-26T07:00:30;98171.66;;;10.44;69.41
9187;BME280;7273;48.902;9.410;2023-04-26T07:02:56;98168.16;;;10.54;69.23
9187;BME280;7273;48.902;9.410;2023-04-26T07:05:21;98168.16;;;10.49;69.23
9187;BME280;7273;48.902;9.410;2023-04-26T07:07:46;98160.06;;;10.29;68.75
9187;BME280;7273;48.902;9.410;2023-04-26T07:10:12;98162.22;;;10.42;68.81
9187;BME280;7273;48.902;9.410;2023-04-26T07:12:38;98164.38;;;10.35;68.63
9187;BME280;7273;48.902;9.410;2023-04-26T07:15:04;98163.84;;;10.38;68.64
9187;BME280;7273;48.902;9.410;2023-04-26T07:17:31;98151.41;;;10.27;68.31
9187;BME280;7273;48.902;9.410;2023-04-26T07:19:57;98153.06;;;10.13;67.86
9187;BME280;7273;48.902;9.410;2023-04-26T07:22:22;98149.00;;;10.20;68.25
9187;BME280;7273;48.902;9.410;2023-04-26T07:24:48;98145.47;;;10.15;68.40
9187;BME280;7273;48.902;9.410;2023-04-26T07:27:13;98142.25;;;10.28;67.48
9187;BME280;7273;48.902;9.410;2023-04-26T07:29:39;98141.97;;;10.24;67.53
9187;BME280;7273;48.902;9.410;2023-04-26T07:32:04;98138.44;;;10.44;67.18
9187;BME280;7273;48.902;9.410;2023-04-26T07:34:30;98133.53;;;10.46;66.69
9187;BME280;7273;48.902;9.410;2023-04-26T07:36:56;98141.91;;;10.49;66.54
9187;BME280;7273;48.902;9.410;2023-04-26T07:39:22;98137.06;;;10.51;66.31
9187;BME280;7273;48.902;9.410;2023-04-26T07:41:48;98141.91;;;10.59;66.26
9187;BME280;7273;48.902;9.410;2023-04-26T07:44:14;98144.03;;;10.62;65.72
9187;BME280;7273;48.902;9.410;2023-04-26T07:46:39;98138.88;;;10.71;65.11
9187;BME280;7273;48.902;9.410;2023-04-26T07:49:05;98142.66;;;10.80;64.90
9187;BME280;7273;48.902;9.410;2023-04-26T07:51:31;98142.69;;;10.75;64.97
9187;BME280;7273;48.902;9.410;2023-04-26T07:53:56;98142.97;;;10.68;64.50
9187;BME280;7273;48.902;9.410;2023-04-26T07:56:22;98141.59;;;10.71;64.70
9187;BME280;7273;48.902;9.410;2023-04-26T07:58:48;98142.13;;;10.73;65.26
9187;BME280;7273;48.902;9.410;2023-04-26T08:01:13;98136.09;;;10.96;64.76
9187;BME280;7273;48.902;9.410;2023-04-26T08:03:39;98137.44;;;10.94;64.52
9187;BME280;7273;48.902;9.410;2023-04-26T08:06:04;98142.03;;;11.03;64.36
9187;BME280;7273;48.902;9.410;2023-04-26T08:08:30;98150.91;;;11.14;64.13
9187;BME280;7273;48.902;9.410;2023-04-26T08:10:57;98148.47;;;11.17;64.18
9187;BME280;7273;48.902;9.410;2023-04-26T08:13:23;98143.28;;;11.26;64.21
9187;BME280;7273;48.902;9.410;2023-04-26T08:15:48;98145.97;;;11.31;63.92
9187;BME280;7273;48.902;9.410;2023-04-26T08:18:14;98144.03;;;11.36;64.10
9187;BME280;7273;48.902;9.410;2023-04-26T08:20:39;98146.06;;;11.54;63.60
9187;BME280;7273;48.902;9.410;2023-04-26T08:23:05;98153.97;;;11.46;63.29
9187;BME280;7273;48.902;9.410;2023-04-26T08:25:30;98152.53;;;11.68;63.27
9187;BME280;7273;48.902;9.410;2023-04-26T08:27:58;98155.56;;;11.57;63.13
9187;BME280;7273;48.902;9.410;2023-04-26T08:30:24;98152.81;;;11.62;63.69
9187;BME280;7273;48.902;9.410;2023-04-26T08:32:49;98155.75;;;11.70;62.92
9187;BME280;7273;48.902;9.410;2023-04-26T08:35:15;98153.00;;;11.75;63.09
9187;BME280;7273;48.902;9.410;2023-04-26T08:37:40;98154.22;;;11.49;62.10
9187;BME280;7273;48.902;9.410;2023-04-26T08:40:07;98156.88;;;11.64;62.76
9187;BME280;7273;48.902;9.410;2023-04-26T08:42:40;98153.34;;;11.64;62.04
9187;BME280;7273;48.902;9.410;2023-04-26T08:45:09;98166.38;;;11.62;61.80
9187;BME280;7273;48.902;9.410;2023-04-26T08:47:47;98157.78;;;11.45;59.67
9187;BME280;7273;48.902;9.410;2023-04-26T08:50:14;98162.28;;;11.69;61.37
9187;BME280;7273;48.902;9.410;2023-04-26T08:52:41;98163.84;;;11.75;62.38
9187;BME280;7273;48.902;9.410;2023-04-26T08:55:08;98164.59;;;11.42;60.21
9187;BME280;7273;48.902;9.410;2023-04-26T08:57:34;98172.28;;;11.15;57.17
9187;BME280;7273;48.902;9.410;2023-04-26T09:00:02;98169.84;;;11.14;59.93
9187;BME280;7273;48.902;9.410;2023-04-26T09:02:30;98172.00;;;11.12;60.95
9187;BME280;7273;48.902;9.410;2023-04-26T09:04:55;98165.53;;;11.13;60.96
9187;BME280;7273;48.902;9.410;2023-04-26T09:07:39;98159.63;;;11.01;60.71
9187;BME280;7273;48.902;9.410;2023-04-26T09:10:05;98159.25;;;11.27;62.47
9187;BME280;7273;48.902;9.410;2023-04-26T09:12:32;98146.38;;;11.48;62.36
9187;BME280;7273;48.902;9.410;2023-04-26T09:14:57;98148.66;;;11.79;62.20
9187;BME280;7273;48.902;9.410;2023-04-26T09:17:30;98150.69;;;11.97;61.83
9187;BME280;7273;48.902;9.410;2023-04-26T09:19:57;98144.63;;;12.10;61.90
9187;BME280;7273;48.902;9.410;2023-04-26T09:22:30;98150.69;;;11.97;61.95
9187;BME280;7273;48.902;9.410;2023-04-26T09:24:56;98148.34;;;11.86;62.29
9187;BME280;7273;48.902;9.410;2023-04-26T09:27:37;98150.75;;;11.87;61.67
9187;BME280;7273;48.902;9.410;2023-04-26T09:30:16;98146.53;;;11.76;60.27
9187;BME280;7273;48.902;9.410;2023-04-26T09:32:56;98142.59;;;11.92;60.82
9187;BME280;7273;48.902;9.410;2023-04-26T09:38:00;98142.28;;;11.55;58.56
9187;BME280;7273;48.902;9.410;2023-04-26T09:40:28;98142.75;;;11.72;60.64
9187;BME280;7273;48.902;9.410;2023-04-26T09:43:02;98137.78;;;11.84;61.05
9187;BME280;7273;48.902;9.410;2023-04-26T09:45:29;98132.66;;;11.83;60.42
9187;BME280;7273;48.902;9.410;2023-04-26T09:48:11;98132.31;;;11.89;59.83
9187;BME280;7273;48.902;9.410;2023-04-26T09:50:37;98128.41;;;12.05;60.33
9187;BME280;7273;48.902;9.410;2023-04-26T09:53:03;98124.41;;;12.27;61.24
9187;BME280;7273;48.902;9.410;2023-04-26T09:55:29;98117.00;;;12.37;60.24
9187;BME280;7273;48.902;9.410;2023-04-26T09:57:58;98123.16;;;12.43;60.76
9187;BME280;7273;48.902;9.410;2023-04-26T10:00:26;98124.16;;;12.52;59.90
9187;BME280;7273;48.902;9.410;2023-04-26T10:02:53;98130.44;;;12.47;59.55
9187;BME280;7273;48.902;9.410;2023-04-26T10:05:19;98124.50;;;12.45;60.38
9187;BME280;7273;48.902;9.410;2023-04-26T10:07:46;98127.97;;;12.51;60.72
9187;BME280;7273;48.902;9.410;2023-04-26T10:10:12;98123.16;;;12.43;59.75
9187;BME280;7273;48.902;9.410;2023-04-26T10:12:39;98118.78;;;12.70;60.46
9187;BME280;7273;48.902;9.410;2023-04-26T10:15:09;98124.00;;;12.67;60.46
9187;BME280;7273;48.902;9.410;2023-04-26T10:17:35;98119.06;;;12.69;60.10
9187;BME280;7273;48.902;9.410;2023-04-26T10:20:01;98123.41;;;12.46;57.88
9187;BME280;7273;48.902;9.410;2023-04-26T10:22:33;98114.88;;;12.58;58.46
9187;BME280;7273;48.902;9.410;2023-04-26T10:25:00;98119.25;;;12.77;58.73
9187;BME280;7273;48.902;9.410;2023-04-26T10:27:46;98115.16;;;13.03;57.64
9187;BME280;7273;48.902;9.410;2023-04-26T10:30:15;98112.50;;;13.22;59.29
9187;BME280;7273;48.902;9.410;2023-04-26T10:35:26;98120.06;;;13.25;58.70
9187;BME280;7273;48.902;9.410;2023-04-26T10:40:33;98116.69;;;13.33;57.27
9187;BME280;7273;48.902;9.410;2023-04-26T10:45:41;98104.94;;;13.19;56.75
9187;BME280;7273;48.902;9.410;2023-04-26T10:48:21;98119.50;;;13.46;56.98
9187;BME280;7273;48.902;9.410;2023-04-26T10:51:16;98109.78;;;13.40;52.96
9187;BME280;7273;48.902;9.410;2023-04-26T10:58:48;98093.31;;;13.69;58.63
9187;BME280;7273;48.902;9.410;2023-04-26T11:03:42;98100.66;;;13.87;55.13
9187;BME280;7273;48.902;9.410;2023-04-26T11:06:08;98096.31;;;14.18;57.18
9187;BME280;7273;48.902;9.410;2023-04-26T11:08:34;98085.63;;;14.95;58.52
9187;BME280;7273;48.902;9.410;2023-04-26T11:13:28;98090.22;;;16.14;58.09
9187;BME280;7273;48.902;9.410;2023-04-26T11:15:59;98079.91;;;16.34;55.21
9187;BME280;7273;48.902;9.410;2023-04-26T11:18:29;98086.69;;;16.14;57.80
9187;BME280;7273;48.902;9.410;2023-04-26T11:20:55;98078.28;;;16.02;58.22
9187;BME280;7273;48.902;9.410;2023-04-26T11:23:22;98078.81;;;16.12;58.93
9187;BME280;7273;48.902;9.410;2023-04-26T11:25:47;98079.19;;;15.97;58.08
9187;BME280;7273;48.902;9.410;2023-04-26T11:28:13;98081.50;;;15.82;59.40
9187;BME280;7273;48.902;9.410;2023-04-26T11:30:39;98071.69;;;15.59;58.67
9187;BME280;7273;48.902;9.410;2023-04-26T11:33:05;98066.66;;;14.90;57.71
9187;BME280;7273;48.902;9.410;2023-04-26T11:35:37;98064.88;;;15.34;58.15
9187;BME280;7273;48.902;9.410;2023-04-26T11:38:03;98055.13;;;16.22;59.00
9187;BME280;7273;48.902;9.410;2023-04-26T11:40:32;98051.91;;;16.50;59.74
9187;BME280;7273;48.902;9.410;2023-04-26T11:43:01;98048.97;;;16.38;45.86
9187;BME280;7273;48.902;9.410;2023-04-26T11:45:27;98044.53;;;16.29;59.12
9187;BME280;7273;48.902;9.410;2023-04-26T11:47:52;98043.25;;;16.57;59.47
9187;BME280;7273;48.902;9.410;2023-04-26T11:50:19;98028.25;;;16.85;59.04
9187;BME280;7273;48.902;9.410;2023-04-26T11:52:47;98032.44;;;16.82;59.16
9187;BME280;7273;48.902;9.410;2023-04-26T11:55:12;98036.13;;;16.86;59.09
9187;BME280;7273;48.902;9.410;2023-04-26T11:57:39;98038.38;;;16.76;58.99
9187;BME280;7273;48.902;9.410;2023-04-26T12:00:12;98036.31;;;16.90;57.58
9187;BME280;7273;48.902;9.410;2023-04-26T12:02:47;98035.31;;;16.38;56.48
9187;BME280;7273;48.902;9.410;2023-04-26T12:05:21;98031.50;;;16.17;56.03
9187;BME280;7273;48.902;9.410;2023-04-26T12:07:53;98021.09;;;16.58;57.11
9187;BME280;7273;48.902;9.410;2023-04-26T12:12:49;98021.97;;;16.84;57.71
9187;BME280;7273;48.902;9.410;2023-04-26T12:15:16;98025.41;;;17.15;57.35
9187;BME280;7273;48.902;9.410;2023-04-26T12:17:52;98022.09;;;17.70;55.88
9187;BME280;7273;48.902;9.410;2023-04-26T12:20:18;98023.88;;;17.57;56.14
9187;BME280;7273;48.902;9.410;2023-04-26T12:23:01;98024.16;;;17.13;52.42
9187;BME280;7273;48.902;9.410;2023-04-26T12:25:27;98021.78;;;17.63;56.72
9187;BME280;7273;48.902;9.410;2023-04-26T12:27:52;98024.47;;;17.37;55.88
9187;BME280;7273;48.902;9.410;2023-04-26T12:30:18;98016.31;;;17.54;55.98
9187;BME280;7273;48.902;9.410;2023-04-26T12:32:43;98026.38;;;17.02;55.78
9187;BME280;7273;48.902;9.410;2023-04-26T12:35:09;98018.84;;;16.52;56.29
9187;BME280;7273;48.902;9.410;2023-04-26T12:37:34;98016.16;;;16.30;56.09
9187;BME280;7273;48.902;9.410;2023-04-26T12:40:00;98007.75;;;16.17;55.91
9187;BME280;7273;48.902;9.410;2023-04-26T12:42:25;98011.34;;;16.27;57.11
9187;BME280;7273;48.902;9.410;2023-04-26T12:44:51;98016.75;;;15.96;56.60
9187;BME280;7273;48.902;9.410;2023-04-26T12:47:16;98019.78;;;16.17;57.33
9187;BME280;7273;48.902;9.410;2023-04-26T12:49:42;98011.41;;;16.13;57.31
9187;BME280;7273;48.902;9.410;2023-04-26T12:52:07;98004.88;;;16.23;56.92
9187;BME280;7273;48.902;9.410;2023-04-26T12:54:33;98005.09;;;16.35;56.84
9187;BME280;7273;48.902;9.410;2023-04-26T12:56:58;98004.31;;;16.43;56.69
9187;BME280;7273;48.902;9.410;2023-04-26T12:59:24;98010.56;;;16.35;56.80
9187;BME280;7273;48.902;9.410;2023-04-26T13:01:49;98006.00;;;16.52;56.51
9187;BME280;7273;48.902;9.410;2023-04-26T13:04:15;98013.06;;;16.53;56.46
9187;BME280;7273;48.902;9.410;2023-04-26T13:06:40;98011.50;;;16.61;56.37
9187;BME280;7273;48.902;9.410;2023-04-26T13:09:06;98014.59;;;16.85;56.12
9187;BME280;7273;48.902;9.410;2023-04-26T13:11:32;98010.25;;;16.36;55.18
9187;BME280;7273;48.902;9.410;2023-04-26T13:13:58;98015.78;;;15.92;54.85
9187;BME280;7273;48.902;9.410;2023-04-26T13:16:24;98019.34;;;15.70;55.24
9187;BME280;7273;48.902;9.410;2023-04-26T13:18:49;98010.16;;;15.66;55.17
9187;BME280;7273;48.902;9.410;2023-04-26T13:21:15;98013.47;;;15.55;54.59
9187;BME280;7273;48.902;9.410;2023-04-26T13:23:41;98019.94;;;15.45;54.20
9187;BME280;7273;48.902;9.410;2023-04-26T13:26:06;98013.13;;;15.21;54.34
9187;BME280;7273;48.902;9.410;2023-04-26T13:28:31;98008.69;;;15.25;53.90
9187;BME280;7273;48.902;9.410;2023-04-26T13:30:57;98004.09;;;15.34;54.07
9187;BME280;7273;48.902;9.410;2023-04-26T13:33:23;98006.50;;;15.13;52.54
9187;BME280;7273;48.902;9.410;2023-04-26T13:35:49;98003.13;;;15.30;54.93
9187;BME280;7273;48.902;9.410;2023-04-26T13:38:14;97998.66;;;15.34;54.12
9187;BME280;7273;48.902;9.410;2023-04-26T13:40:40;97994.31;;;15.46;53.99
9187;BME280;7273;48.902;9.410;2023-04-26T13:43:05;98002.38;;;15.51;53.82
9187;BME280;7273;48.902;9.410;2023-04-26T13:45:30;98000.50;;;15.60;53.48
9187;BME280;7273;48.902;9.410;2023-04-26T13:47:56;97999.19;;;15.80;54.11